Terminal Aerodrome Forecast
Issued by NWS

Home | Current Version | Previous Version | Text Only | Print | Product List | Glossary On
Versions: 1 2 3 4 5 6 7 8 9 10 11 12 13 14 15 16 17 18
000
FTUS45 KRIW 011300 AAA
TAFCPR
TAF AMD
KCPR 011333Z 0114/0212 VRB05KT P6SM SCT025
      TEMPO 0114/0116 BKN025
     FM011800 VRB04KT P6SM SCT050
     FM020600 21006KT P6SM BKN080=

USA.gov is the U.S. government's official web portal to all federal, state and local government web resources and services.